METAR Data
IDs: Format: Raw Decoded Include TAF

Data at: 1911 UTC 12 Dec 2018

METAR for:KMWO (Middletown/Hook Fld, OH, US)
Text:KMWO 121855Z AUTO 20010KT 10SM OVC070 08/M02 A2991 RMK AO2 T00811015
Temperature: 8.1°C ( 47°F)
Dewpoint: -1.5°C ( 29°F) [RH = 51%]
Pressure (altimeter):29.91 inches Hg (1013.0 mb)
Winds:from the SSW (200 degrees) at 12 MPH (10 knots; 5.1 m/s)
Visibility:10 or more sm (16+ km)
Ceiling:7000 feet AGL
Clouds: overcast cloud deck at 7000 feet AGL
QC Flag:automated observation with no human augmentation